sensor_id;sensor_type;location;lat;lon;timestamp;P1;durP1;ratioP1;P2;durP2;ratioP2
62332;SDS011;48624;49.812;8.562;2023-03-24T00:01:20;447.85;;;430.70;;
62332;SDS011;48624;49.812;8.562;2023-03-24T00:03:45;411.90;;;396.73;;
62332;SDS011;48624;49.812;8.562;2023-03-24T00:06:13;442.17;;;424.95;;
62332;SDS011;48624;49.812;8.562;2023-03-24T00:08:38;414.80;;;399.48;;
62332;SDS011;48624;49.812;8.562;2023-03-24T00:11:06;435.80;;;419.13;;
62332;SDS011;48624;49.812;8.562;2023-03-24T00:13:33;415.75;;;400.65;;
62332;SDS011;48624;49.812;8.562;2023-03-24T00:16:05;429.50;;;413.27;;
62332;SDS011;48624;49.812;8.562;2023-03-24T00:18:36;430.95;;;415.02;;
62332;SDS011;48624;49.812;8.562;2023-03-24T00:21:03;442.08;;;425.58;;
62332;SDS011;48624;49.812;8.562;2023-03-24T00:23:30;411.92;;;396.88;;
62332;SDS011;48624;49.812;8.562;2023-03-24T00:28:30;414.15;;;398.67;;
62332;SDS011;48624;49.812;8.562;2023-03-24T00:30:57;405.50;;;390.45;;
62332;SDS011;48624;49.812;8.562;2023-03-24T00:33:27;429.08;;;413.00;;
62332;SDS011;48624;49.812;8.562;2023-03-24T00:35:56;409.10;;;394.05;;
62332;SDS011;48624;49.812;8.562;2023-03-24T00:38:22;418.92;;;403.42;;
62332;SDS011;48624;49.812;8.562;2023-03-24T00:40:48;425.17;;;409.27;;
62332;SDS011;48624;49.812;8.562;2023-03-24T00:43:14;421.83;;;406.35;;
62332;SDS011;48624;49.812;8.562;2023-03-24T00:45:40;433.48;;;417.60;;
62332;SDS011;48624;49.812;8.562;2023-03-24T00:48:16;436.60;;;420.27;;
62332;SDS011;48624;49.812;8.562;2023-03-24T00:50:44;434.02;;;417.58;;
62332;SDS011;48624;49.812;8.562;2023-03-24T00:53:11;439.63;;;423.33;;
62332;SDS011;48624;49.812;8.562;2023-03-24T00:55:39;437.92;;;421.48;;
62332;SDS011;48624;49.812;8.562;2023-03-24T00:58:06;430.92;;;414.85;;
62332;SDS011;48624;49.812;8.562;2023-03-24T01:00:31;446.63;;;429.85;;
62332;SDS011;48624;49.812;8.562;2023-03-24T01:02:56;427.10;;;410.98;;
62332;SDS011;48624;49.812;8.562;2023-03-24T01:05:27;433.80;;;417.58;;
62332;SDS011;48624;49.812;8.562;2023-03-24T01:07:55;428.55;;;412.48;;
62332;SDS011;48624;49.812;8.562;2023-03-24T01:10:22;437.92;;;421.58;;
62332;SDS011;48624;49.812;8.562;2023-03-24T01:12:50;438.60;;;422.00;;
62332;SDS011;48624;49.812;8.562;2023-03-24T01:15:17;419.25;;;403.92;;
62332;SDS011;48624;49.812;8.562;2023-03-24T01:17:45;410.13;;;395.15;;
62332;SDS011;48624;49.812;8.562;2023-03-24T01:20:13;420.88;;;405.52;;
62332;SDS011;48624;49.812;8.562;2023-03-24T01:22:40;436.25;;;419.27;;
62332;SDS011;48624;49.812;8.562;2023-03-24T01:25:12;408.75;;;393.80;;
62332;SDS011;48624;49.812;8.562;2023-03-24T01:27:42;399.02;;;384.35;;
62332;SDS011;48624;49.812;8.562;2023-03-24T01:30:10;416.95;;;401.15;;
62332;SDS011;48624;49.812;8.562;2023-03-24T01:32:38;374.73;;;361.50;;
62332;SDS011;48624;49.812;8.562;2023-03-24T01:35:04;385.88;;;371.95;;
62332;SDS011;48624;49.812;8.562;2023-03-24T01:37:30;345.48;;;333.08;;
62332;SDS011;48624;49.812;8.562;2023-03-24T01:39:57;367.25;;;354.20;;
62332;SDS011;48624;49.812;8.562;2023-03-24T01:42:23;397.63;;;383.02;;
62332;SDS011;48624;49.812;8.562;2023-03-24T01:44:50;510.17;;;486.17;;
62332;SDS011;48624;49.812;8.562;2023-03-24T01:47:21;408.80;;;393.85;;
62332;SDS011;48624;49.812;8.562;2023-03-24T01:49:49;390.02;;;376.02;;
62332;SDS011;48624;49.812;8.562;2023-03-24T01:52:20;416.08;;;400.63;;
62332;SDS011;48624;49.812;8.562;2023-03-24T01:54:49;438.45;;;420.73;;
62332;SDS011;48624;49.812;8.562;2023-03-24T01:57:35;437.92;;;421.08;;
62332;SDS011;48624;49.812;8.562;2023-03-24T02:00:06;463.10;;;443.75;;
62332;SDS011;48624;49.812;8.562;2023-03-24T02:02:34;435.13;;;418.08;;
62332;SDS011;48624;49.812;8.562;2023-03-24T02:05:02;420.05;;;404.42;;
62332;SDS011;48624;49.812;8.562;2023-03-24T02:10:16;430.02;;;413.48;;
62332;SDS011;48624;49.812;8.562;2023-03-24T02:12:44;434.50;;;417.13;;
62332;SDS011;48624;49.812;8.562;2023-03-24T02:15:11;381.75;;;368.08;;
62332;SDS011;48624;49.812;8.562;2023-03-24T02:23:03;391.75;;;376.88;;
62332;SDS011;48624;49.812;8.562;2023-03-24T02:31:24;385.88;;;371.80;;
62332;SDS011;48624;49.812;8.562;2023-03-24T02:42:58;393.40;;;378.90;;
62332;SDS011;48624;49.812;8.562;2023-03-24T02:45:35;517.65;;;495.17;;
62332;SDS011;48624;49.812;8.562;2023-03-24T02:53:46;492.30;;;471.60;;
62332;SDS011;48624;49.812;8.562;2023-03-24T02:59:15;536.10;;;512.55;;
62332;SDS011;48624;49.812;8.562;2023-03-24T03:01:47;555.53;;;530.55;;
62332;SDS011;48624;49.812;8.562;2023-03-24T03:04:19;521.33;;;496.52;;
62332;SDS011;48624;49.812;8.562;2023-03-24T03:06:48;433.95;;;417.33;;
62332;SDS011;48624;49.812;8.562;2023-03-24T03:09:18;524.53;;;500.10;;
62332;SDS011;48624;49.812;8.562;2023-03-24T03:11:49;476.65;;;457.23;;
62332;SDS011;48624;49.812;8.562;2023-03-24T03:14:22;518.20;;;496.70;;
62332;SDS011;48624;49.812;8.562;2023-03-24T03:16:53;523.85;;;501.48;;
62332;SDS011;48624;49.812;8.562;2023-03-24T03:19:29;458.65;;;440.88;;
62332;SDS011;48624;49.812;8.562;2023-03-24T03:21:58;458.38;;;440.63;;
62332;SDS011;48624;49.812;8.562;2023-03-24T03:24:29;579.28;;;552.05;;
62332;SDS011;48624;49.812;8.562;2023-03-24T03:27:01;433.45;;;417.27;;
62332;SDS011;48624;49.812;8.562;2023-03-24T03:29:34;400.20;;;385.52;;
62332;SDS011;48624;49.812;8.562;2023-03-24T03:32:03;534.13;;;511.25;;
62332;SDS011;48624;49.812;8.562;2023-03-24T03:34:35;621.95;;;585.80;;
62332;SDS011;48624;49.812;8.562;2023-03-24T03:39:46;626.90;;;593.97;;
62332;SDS011;48624;49.812;8.562;2023-03-24T03:42:15;700.72;;;654.72;;
62332;SDS011;48624;49.812;8.562;2023-03-24T03:44:40;421.40;;;405.25;;
62332;SDS011;48624;49.812;8.562;2023-03-24T03:47:06;679.35;;;638.58;;
62332;SDS011;48624;49.812;8.562;2023-03-24T03:49:31;461.05;;;436.88;;
62332;SDS011;48624;49.812;8.562;2023-03-24T03:51:57;727.15;;;678.08;;
62332;SDS011;48624;49.812;8.562;2023-03-24T03:54:23;502.00;;;478.92;;
62332;SDS011;48624;49.812;8.562;2023-03-24T03:56:52;501.77;;;481.23;;
62332;SDS011;48624;49.812;8.562;2023-03-24T03:59:26;539.15;;;514.22;;
62332;SDS011;48624;49.812;8.562;2023-03-24T04:01:58;497.48;;;470.92;;
62332;SDS011;48624;49.812;8.562;2023-03-24T04:04:44;603.60;;;574.55;;
62332;SDS011;48624;49.812;8.562;2023-03-24T04:12:48;575.67;;;548.03;;
62332;SDS011;48624;49.812;8.562;2023-03-24T04:15:56;679.15;;;640.70;;
62332;SDS011;48624;49.812;8.562;2023-03-24T04:18:36;600.83;;;573.90;;
62332;SDS011;48624;49.812;8.562;2023-03-24T04:21:30;585.95;;;560.17;;
62332;SDS011;48624;49.812;8.562;2023-03-24T04:26:57;645.33;;;610.55;;
62332;SDS011;48624;49.812;8.562;2023-03-24T04:32:42;482.90;;;463.52;;
62332;SDS011;48624;49.812;8.562;2023-03-24T04:35:14;580.28;;;552.67;;
62332;SDS011;48624;49.812;8.562;2023-03-24T04:37:50;562.95;;;534.03;;
62332;SDS011;48624;49.812;8.562;2023-03-24T04:40:19;511.00;;;487.58;;
62332;SDS011;48624;49.812;8.562;2023-03-24T04:42:47;558.55;;;532.42;;
62332;SDS011;48624;49.812;8.562;2023-03-24T04:45:16;595.13;;;560.58;;
62332;SDS011;48624;49.812;8.562;2023-03-24T04:47:44;490.15;;;467.13;;
62332;SDS011;48624;49.812;8.562;2023-03-24T04:50:12;514.55;;;488.70;;
62332;SDS011;48624;49.812;8.562;2023-03-24T04:52:38;500.45;;;479.30;;
62332;SDS011;48624;49.812;8.562;2023-03-24T04:58:10;521.20;;;497.02;;
62332;SDS011;48624;49.812;8.562;2023-03-24T05:00:35;453.17;;;436.00;;
62332;SDS011;48624;49.812;8.562;2023-03-24T05:03:01;575.42;;;542.08;;
62332;SDS011;48624;49.812;8.562;2023-03-24T05:05:26;575.17;;;547.72;;
62332;SDS011;48624;49.812;8.562;2023-03-24T05:07:52;538.67;;;514.08;;
62332;SDS011;48624;49.812;8.562;2023-03-24T05:10:18;532.45;;;508.95;;
62332;SDS011;48624;49.812;8.562;2023-03-24T05:12:44;474.00;;;454.70;;
62332;SDS011;48624;49.812;8.562;2023-03-24T05:15:09;515.50;;;494.63;;
62332;SDS011;48624;49.812;8.562;2023-03-24T05:17:35;526.50;;;503.70;;
62332;SDS011;48624;49.812;8.562;2023-03-24T05:20:01;532.00;;;507.55;;
62332;SDS011;48624;49.812;8.562;2023-03-24T05:22:26;490.80;;;470.63;;
62332;SDS011;48624;49.812;8.562;2023-03-24T05:24:52;700.83;;;657.72;;
62332;SDS011;48624;49.812;8.562;2023-03-24T05:27:17;552.17;;;525.58;;
62332;SDS011;48624;49.812;8.562;2023-03-24T05:29:42;625.13;;;592.08;;
62332;SDS011;48624;49.812;8.562;2023-03-24T05:32:08;596.53;;;563.30;;
62332;SDS011;48624;49.812;8.562;2023-03-24T05:34:33;477.27;;;457.48;;
62332;SDS011;48624;49.812;8.562;2023-03-24T05:36:58;555.83;;;529.30;;
62332;SDS011;48624;49.812;8.562;2023-03-24T05:39:24;514.03;;;491.63;;
62332;SDS011;48624;49.812;8.562;2023-03-24T05:41:50;457.83;;;440.33;;
62332;SDS011;48624;49.812;8.562;2023-03-24T05:44:15;509.70;;;487.63;;
62332;SDS011;48624;49.812;8.562;2023-03-24T05:46:41;500.23;;;478.48;;
62332;SDS011;48624;49.812;8.562;2023-03-24T05:49:07;493.25;;;472.17;;
62332;SDS011;48624;49.812;8.562;2023-03-24T05:51:32;535.10;;;510.50;;
62332;SDS011;48624;49.812;8.562;2023-03-24T05:53:57;500.40;;;478.17;;
62332;SDS011;48624;49.812;8.562;2023-03-24T05:56:22;587.75;;;557.20;;
62332;SDS011;48624;49.812;8.562;2023-03-24T05:58:48;449.15;;;432.02;;
62332;SDS011;48624;49.812;8.562;2023-03-24T06:01:15;462.48;;;444.52;;
62332;SDS011;48624;49.812;8.562;2023-03-24T06:03:42;441.40;;;424.58;;
62332;SDS011;48624;49.812;8.562;2023-03-24T06:06:08;463.80;;;446.25;;
62332;SDS011;48624;49.812;8.562;2023-03-24T06:08:39;463.85;;;446.17;;
62332;SDS011;48624;49.812;8.562;2023-03-24T06:11:08;522.80;;;500.38;;
62332;SDS011;48624;49.812;8.562;2023-03-24T06:13:34;502.08;;;481.75;;
62332;SDS011;48624;49.812;8.562;2023-03-24T06:16:00;485.17;;;465.80;;
62332;SDS011;48624;49.812;8.562;2023-03-24T06:18:25;457.23;;;439.80;;
62332;SDS011;48624;49.812;8.562;2023-03-24T06:20:52;479.05;;;460.20;;
62332;SDS011;48624;49.812;8.562;2023-03-24T06:23:20;456.15;;;438.52;;
62332;SDS011;48624;49.812;8.562;2023-03-24T06:25:47;462.95;;;445.58;;
62332;SDS011;48624;49.812;8.562;2023-03-24T06:28:14;448.92;;;431.80;;
62332;SDS011;48624;49.812;8.562;2023-03-24T06:30:42;465.75;;;447.63;;
62332;SDS011;48624;49.812;8.562;2023-03-24T06:33:08;482.20;;;463.67;;
62332;SDS011;48624;49.812;8.562;2023-03-24T06:35:35;484.30;;;465.25;;
62332;SDS011;48624;49.812;8.562;2023-03-24T06:38:01;456.40;;;439.00;;
62332;SDS011;48624;49.812;8.562;2023-03-24T06:40:26;512.28;;;490.83;;
62332;SDS011;48624;49.812;8.562;2023-03-24T06:42:52;561.08;;;535.13;;
62332;SDS011;48624;49.812;8.562;2023-03-24T06:45:17;513.03;;;491.17;;
62332;SDS011;48624;49.812;8.562;2023-03-24T06:47:42;563.38;;;536.67;;
62332;SDS011;48624;49.812;8.562;2023-03-24T06:50:07;520.33;;;497.80;;
62332;SDS011;48624;49.812;8.562;2023-03-24T06:52:34;527.35;;;505.30;;
62332;SDS011;48624;49.812;8.562;2023-03-24T06:55:01;471.75;;;452.92;;
62332;SDS011;48624;49.812;8.562;2023-03-24T06:57:27;541.50;;;518.22;;
62332;SDS011;48624;49.812;8.562;2023-03-24T06:59:53;648.63;;;613.15;;
62332;SDS011;48624;49.812;8.562;2023-03-24T07:02:19;514.65;;;492.55;;
62332;SDS011;48624;49.812;8.562;2023-03-24T07:04:44;430.33;;;414.38;;
62332;SDS011;48624;49.812;8.562;2023-03-24T07:07:10;591.70;;;564.47;;
62332;SDS011;48624;49.812;8.562;2023-03-24T07:09:36;532.05;;;509.73;;
62332;SDS011;48624;49.812;8.562;2023-03-24T07:12:03;574.53;;;548.17;;
62332;SDS011;48624;49.812;8.562;2023-03-24T07:14:30;531.90;;;508.40;;
62332;SDS011;48624;49.812;8.562;2023-03-24T07:16:55;493.08;;;472.08;;
62332;SDS011;48624;49.812;8.562;2023-03-24T07:19:21;672.17;;;628.67;;
62332;SDS011;48624;49.812;8.562;2023-03-24T07:21:46;655.13;;;617.22;;
62332;SDS011;48624;49.812;8.562;2023-03-24T07:24:14;535.30;;;509.50;;
62332;SDS011;48624;49.812;8.562;2023-03-24T07:26:42;563.67;;;537.63;;
62332;SDS011;48624;49.812;8.562;2023-03-24T07:29:07;713.83;;;669.38;;
62332;SDS011;48624;49.812;8.562;2023-03-24T07:31:33;554.15;;;528.08;;
62332;SDS011;48624;49.812;8.562;2023-03-24T07:34:02;592.67;;;560.65;;
62332;SDS011;48624;49.812;8.562;2023-03-24T07:36:29;567.25;;;539.78;;
62332;SDS011;48624;49.812;8.562;2023-03-24T07:38:54;500.77;;;479.27;;
62332;SDS011;48624;49.812;8.562;2023-03-24T07:41:20;650.17;;;612.35;;
62332;SDS011;48624;49.812;8.562;2023-03-24T07:43:46;558.97;;;533.15;;
62332;SDS011;48624;49.812;8.562;2023-03-24T07:46:11;579.05;;;551.70;;
62332;SDS011;48624;49.812;8.562;2023-03-24T07:48:36;482.83;;;461.75;;
62332;SDS011;48624;49.812;8.562;2023-03-24T07:51:01;713.38;;;669.05;;
62332;SDS011;48624;49.812;8.562;2023-03-24T07:53:27;512.15;;;490.38;;
62332;SDS011;48624;49.812;8.562;2023-03-24T07:55:52;571.47;;;541.97;;
62332;SDS011;48624;49.812;8.562;2023-03-24T07:58:17;494.90;;;473.90;;
62332;SDS011;48624;49.812;8.562;2023-03-24T08:00:43;494.38;;;473.77;;
62332;SDS011;48624;49.812;8.562;2023-03-24T08:03:10;695.67;;;651.28;;
62332;SDS011;48624;49.812;8.562;2023-03-24T08:05:38;653.85;;;611.80;;
62332;SDS011;48624;49.812;8.562;2023-03-24T08:08:04;573.80;;;546.78;;
62332;SDS011;48624;49.812;8.562;2023-03-24T08:10:30;443.52;;;426.15;;
62332;SDS011;48624;49.812;8.562;2023-03-24T08:12:56;582.25;;;549.42;;
62332;SDS011;48624;49.812;8.562;2023-03-24T08:15:23;561.63;;;534.58;;
62332;SDS011;48624;49.812;8.562;2023-03-24T08:17:50;478.55;;;460.00;;
62332;SDS011;48624;49.812;8.562;2023-03-24T08:20:16;445.50;;;423.67;;
62332;SDS011;48624;49.812;8.562;2023-03-24T08:22:44;564.83;;;538.42;;
62332;SDS011;48624;49.812;8.562;2023-03-24T08:25:14;734.15;;;684.78;;
62332;SDS011;48624;49.812;8.562;2023-03-24T08:27:42;544.88;;;520.67;;
62332;SDS011;48624;49.812;8.562;2023-03-24T08:30:09;508.02;;;486.88;;
62332;SDS011;48624;49.812;8.562;2023-03-24T08:32:41;503.73;;;483.17;;
62332;SDS011;48624;49.812;8.562;2023-03-24T08:35:09;461.45;;;443.73;;
62332;SDS011;48624;49.812;8.562;2023-03-24T08:37:36;613.65;;;579.42;;
62332;SDS011;48624;49.812;8.562;2023-03-24T08:40:01;567.42;;;538.83;;
62332;SDS011;48624;49.812;8.562;2023-03-24T08:42:29;517.22;;;493.30;;
62332;SDS011;48624;49.812;8.562;2023-03-24T08:44:54;540.42;;;516.55;;
62332;SDS011;48624;49.812;8.562;2023-03-24T08:47:19;501.48;;;481.00;;
62332;SDS011;48624;49.812;8.562;2023-03-24T08:49:45;473.23;;;454.85;;
62332;SDS011;48624;49.812;8.562;2023-03-24T08:52:10;476.10;;;457.77;;
62332;SDS011;48624;49.812;8.562;2023-03-24T08:54:35;487.00;;;468.02;;
62332;SDS011;48624;49.812;8.562;2023-03-24T08:57:01;530.08;;;507.33;;
62332;SDS011;48624;49.812;8.562;2023-03-24T08:59:27;584.40;;;555.83;;
62332;SDS011;48624;49.812;8.562;2023-03-24T09:01:52;515.47;;;493.98;;
62332;SDS011;48624;49.812;8.562;2023-03-24T09:04:17;483.08;;;464.42;;
62332;SDS011;48624;49.812;8.562;2023-03-24T09:06:42;533.80;;;510.85;;
62332;SDS011;48624;49.812;8.562;2023-03-24T09:09:08;536.28;;;512.00;;
62332;SDS011;48624;49.812;8.562;2023-03-24T09:11:33;499.67;;;479.65;;
62332;SDS011;48624;49.812;8.562;2023-03-24T09:13:59;502.90;;;482.02;;
62332;SDS011;48624;49.812;8.562;2023-03-24T09:16:24;454.40;;;437.02;;
62332;SDS011;48624;49.812;8.562;2023-03-24T09:18:50;603.75;;;573.30;;
62332;SDS011;48624;49.812;8.562;2023-03-24T09:21:16;501.50;;;480.98;;
62332;SDS011;48624;49.812;8.562;2023-03-24T09:23:41;511.25;;;488.73;;
62332;SDS011;48624;49.812;8.562;2023-03-24T09:26:08;495.92;;;476.23;;
62332;SDS011;48624;49.812;8.562;2023-03-24T09:28:33;498.00;;;478.13;;
62332;SDS011;48624;49.812;8.562;2023-03-24T09:31:00;539.13;;;513.63;;
62332;SDS011;48624;49.812;8.562;2023-03-24T09:33:27;477.00;;;457.92;;
62332;SDS011;48624;49.812;8.562;2023-03-24T09:35:57;502.02;;;481.23;;
62332;SDS011;48624;49.812;8.562;2023-03-24T09:38:23;476.15;;;457.92;;
62332;SDS011;48624;49.812;8.562;2023-03-24T09:40:50;475.98;;;457.10;;
62332;SDS011;48624;49.812;8.562;2023-03-24T09:43:23;435.88;;;419.13;;
62332;SDS011;48624;49.812;8.562;2023-03-24T09:45:57;504.58;;;483.80;;
62332;SDS011;48624;49.812;8.562;2023-03-24T09:48:33;478.35;;;458.63;;
62332;SDS011;48624;49.812;8.562;2023-03-24T09:51:02;466.27;;;448.13;;
62332;SDS011;48624;49.812;8.562;2023-03-24T09:56:29;456.05;;;438.48;;
62332;SDS011;48624;49.812;8.562;2023-03-24T09:59:07;478.15;;;458.88;;
62332;SDS011;48624;49.812;8.562;2023-03-24T10:01:40;506.00;;;484.77;;
62332;SDS011;48624;49.812;8.562;2023-03-24T10:04:09;540.58;;;516.58;;
62332;SDS011;48624;49.812;8.562;2023-03-24T10:06:39;510.13;;;489.27;;
62332;SDS011;48624;49.812;8.562;2023-03-24T10:11:51;549.92;;;525.47;;
62332;SDS011;48624;49.812;8.562;2023-03-24T10:14:39;675.22;;;620.40;;
62332;SDS011;48624;49.812;8.562;2023-03-24T10:17:14;678.50;;;636.42;;
62332;SDS011;48624;49.812;8.562;2023-03-24T10:20:10;577.17;;;540.33;;
62332;SDS011;48624;49.812;8.562;2023-03-24T10:25:55;618.70;;;578.55;;
62332;SDS011;48624;49.812;8.562;2023-03-24T10:31:32;616.20;;;577.35;;
62332;SDS011;48624;49.812;8.562;2023-03-24T10:34:01;558.17;;;530.00;;
62332;SDS011;48624;49.812;8.562;2023-03-24T10:36:26;514.97;;;491.55;;
62332;SDS011;48624;49.812;8.562;2023-03-24T10:38:53;472.95;;;453.60;;
62332;SDS011;48624;49.812;8.562;2023-03-24T10:41:20;594.20;;;560.60;;
62332;SDS011;48624;49.812;8.562;2023-03-24T10:43:48;497.63;;;477.48;;
62332;SDS011;48624;49.812;8.562;2023-03-24T10:46:16;558.50;;;530.80;;
62332;SDS011;48624;49.812;8.562;2023-03-24T10:48:45;518.65;;;495.27;;
62332;SDS011;48624;49.812;8.562;2023-03-24T10:51:16;497.27;;;476.85;;
62332;SDS011;48624;49.812;8.562;2023-03-24T10:56:45;477.10;;;457.15;;
62332;SDS011;48624;49.812;8.562;2023-03-24T10:59:20;458.20;;;441.05;;
62332;SDS011;48624;49.812;8.562;2023-03-24T11:04:33;464.80;;;446.75;;
62332;SDS011;48624;49.812;8.562;2023-03-24T11:09:43;449.98;;;432.77;;
62332;SDS011;48624;49.812;8.562;2023-03-24T11:12:20;517.38;;;492.35;;
62332;SDS011;48624;49.812;8.562;2023-03-24T11:15:29;465.65;;;447.00;;
62332;SDS011;48624;49.812;8.562;2023-03-24T11:20:34;484.10;;;464.40;;
62332;SDS011;48624;49.812;8.562;2023-03-24T11:23:29;428.00;;;412.08;;
62332;SDS011;48624;49.812;8.562;2023-03-24T11:26:06;440.90;;;424.30;;
62332;SDS011;48624;49.812;8.562;2023-03-24T11:28:36;488.55;;;469.02;;
62332;SDS011;48624;49.812;8.562;2023-03-24T11:31:10;479.20;;;460.38;;
62332;SDS011;48624;49.812;8.562;2023-03-24T11:33:44;516.65;;;496.05;;
62332;SDS011;48624;49.812;8.562;2023-03-24T11:39:01;491.35;;;464.30;;
62332;SDS011;48624;49.812;8.562;2023-03-24T11:41:27;378.65;;;365.05;;
62332;SDS011;48624;49.812;8.562;2023-03-24T11:46:50;397.73;;;383.40;;
62332;SDS011;48624;49.812;8.562;2023-03-24T11:49:20;388.33;;;374.80;;
62332;SDS011;48624;49.812;8.562;2023-03-24T11:51:51;409.98;;;394.63;;
62332;SDS011;48624;49.812;8.562;2023-03-24T11:54:19;452.33;;;433.98;;
62332;SDS011;48624;49.812;8.562;2023-03-24T11:56:51;421.08;;;405.42;;
62332;SDS011;48624;49.812;8.562;2023-03-24T11:59:24;409.67;;;394.63;;
62332;SDS011;48624;49.812;8.562;2023-03-24T12:05:09;387.23;;;373.25;;
62332;SDS011;48624;49.812;8.562;2023-03-24T12:10:54;416.67;;;401.80;;
62332;SDS011;48624;49.812;8.562;2023-03-24T12:13:43;445.88;;;429.58;;
62332;SDS011;48624;49.812;8.562;2023-03-24T12:22:13;417.23;;;402.27;;
62332;SDS011;48624;49.812;8.562;2023-03-24T12:39:03;334.63;;;323.02;;
62332;SDS011;48624;49.812;8.562;2023-03-24T12:41:49;327.80;;;315.13;;
62332;SDS011;48624;49.812;8.562;2023-03-24T12:50:52;433.00;;;410.65;;
62332;SDS011;48624;49.812;8.562;2023-03-24T12:54:16;290.92;;;280.27;;
62332;SDS011;48624;49.812;8.562;2023-03-24T12:56:52;294.52;;;284.38;;
62332;SDS011;48624;49.812;8.562;2023-03-24T12:59:32;315.70;;;301.15;;
62332;SDS011;48624;49.812;8.562;2023-03-24T13:02:18;310.10;;;299.63;;
62332;SDS011;48624;49.812;8.562;2023-03-24T13:04:45;221.07;;;211.65;;
62332;SDS011;48624;49.812;8.562;2023-03-24T13:07:17;394.13;;;377.05;;
62332;SDS011;48624;49.812;8.562;2023-03-24T13:09:49;155.63;;;150.02;;
62332;SDS011;48624;49.812;8.562;2023-03-24T13:12:20;258.50;;;247.25;;
62332;SDS011;48624;49.812;8.562;2023-03-24T13:17:44;87.45;;;84.32;;
62332;SDS011;48624;49.812;8.562;2023-03-24T13:20:38;318.23;;;286.45;;
62332;SDS011;48624;49.812;8.562;2023-03-24T13:23:29;273.17;;;262.40;;
62332;SDS011;48624;49.812;8.562;2023-03-24T13:28:50;85.43;;;82.05;;
62332;SDS011;48624;49.812;8.562;2023-03-24T13:31:19;46.00;;;44.20;;
62332;SDS011;48624;49.812;8.562;2023-03-24T13:33:48;39.55;;;37.88;;
62332;SDS011;48624;49.812;8.562;2023-03-24T13:36:21;12.07;;;11.40;;
62332;SDS011;48624;49.812;8.562;2023-03-24T13:39:00;6.18;;;4.45;;
62332;SDS011;48624;49.812;8.562;2023-03-24T13:41:34;10.38;;;9.90;;
62332;SDS011;48624;49.812;8.562;2023-03-24T13:44:23;37.92;;;36.25;;
62332;SDS011;48624;49.812;8.562;2023-03-24T13:46:59;15.90;;;15.15;;
62332;SDS011;48624;49.812;8.562;2023-03-24T13:49:29;4.30;;;3.25;;
62332;SDS011;48624;49.812;8.562;2023-03-24T13:51:56;2.55;;;1.00;;
62332;SDS011;48624;49.812;8.562;2023-03-24T13:54:22;9.13;;;8.52;;
62332;SDS011;48624;49.812;8.562;2023-03-24T13:56:55;2.47;;;2.28;;
62332;SDS011;48624;49.812;8.562;2023-03-24T14:07:24;1.63;;;0.90;;
62332;SDS011;48624;49.812;8.562;2023-03-24T14:10:00;1.17;;;0.47;;
62332;SDS011;48624;49.812;8.562;2023-03-24T14:12:54;4.97;;;1.05;;
62332;SDS011;48624;49.812;8.562;2023-03-24T14:15:32;2.75;;;0.68;;
62332;SDS011;48624;49.812;8.562;2023-03-24T14:23:23;1.58;;;0.60;;
62332;SDS011;48624;49.812;8.562;2023-03-24T14:28:53;1.83;;;0.93;;
62332;SDS011;48624;49.812;8.562;2023-03-24T14:36:39;6.10;;;5.65;;
62332;SDS011;48624;49.812;8.562;2023-03-24T14:41:55;7.28;;;6.72;;
62332;SDS011;48624;49.812;8.562;2023-03-24T14:47:15;4.97;;;4.65;;
62332;SDS011;48624;49.812;8.562;2023-03-24T14:49:43;38.92;;;37.03;;
62332;SDS011;48624;49.812;8.562;2023-03-24T14:52:27;25.27;;;24.17;;
62332;SDS011;48624;49.812;8.562;2023-03-24T14:54:57;4.28;;;4.00;;
62332;SDS011;48624;49.812;8.562;2023-03-24T14:57:26;3.33;;;3.03;;
62332;SDS011;48624;49.812;8.562;2023-03-24T15:00:06;5.10;;;4.65;;
62332;SDS011;48624;49.812;8.562;2023-03-24T15:02:48;16.33;;;15.52;;
62332;SDS011;48624;49.812;8.562;2023-03-24T15:05:20;9.13;;;8.63;;
62332;SDS011;48624;49.812;8.562;2023-03-24T15:08:01;8.05;;;7.55;;
62332;SDS011;48624;49.812;8.562;2023-03-24T15:15:57;41.90;;;40.10;;
62332;SDS011;48624;49.812;8.562;2023-03-24T15:18:25;19.05;;;17.98;;
62332;SDS011;48624;49.812;8.562;2023-03-24T15:20:51;44.85;;;42.55;;
62332;SDS011;48624;49.812;8.562;2023-03-24T15:23:18;8.05;;;7.50;;
62332;SDS011;48624;49.812;8.562;2023-03-24T15:25:45;56.90;;;54.40;;
62332;SDS011;48624;49.812;8.562;2023-03-24T15:30:47;1.58;;;1.48;;
62332;SDS011;48624;49.812;8.562;2023-03-24T15:33:14;2.17;;;1.10;;
62332;SDS011;48624;49.812;8.562;2023-03-24T15:35:42;4.78;;;1.33;;
62332;SDS011;48624;49.812;8.562;2023-03-24T15:38:19;2.60;;;0.95;;
62332;SDS011;48624;49.812;8.562;2023-03-24T15:40:54;9.77;;;9.07;;
62332;SDS011;48624;49.812;8.562;2023-03-24T15:43:20;5.93;;;4.80;;
62332;SDS011;48624;49.812;8.562;2023-03-24T15:45:49;2.17;;;1.15;;
62332;SDS011;48624;49.812;8.562;2023-03-24T15:48:17;6.65;;;1.88;;
62332;SDS011;48624;49.812;8.562;2023-03-24T15:56:31;18.55;;;17.23;;
62332;SDS011;48624;49.812;8.562;2023-03-24T16:01:24;6.55;;;4.57;;
62332;SDS011;48624;49.812;8.562;2023-03-24T16:03:51;5.85;;;5.00;;
62332;SDS011;48624;49.812;8.562;2023-03-24T16:06:29;4.72;;;4.45;;
62332;SDS011;48624;49.812;8.562;2023-03-24T16:08:59;4.78;;;3.70;;
62332;SDS011;48624;49.812;8.562;2023-03-24T16:11:28;8.75;;;7.93;;
62332;SDS011;48624;49.812;8.562;2023-03-24T16:13:53;2.45;;;0.93;;
62332;SDS011;48624;49.812;8.562;2023-03-24T16:16:22;2.70;;;1.25;;
62332;SDS011;48624;49.812;8.562;2023-03-24T16:18:50;2.42;;;1.20;;
62332;SDS011;48624;49.812;8.562;2023-03-24T16:21:22;3.92;;;3.60;;
62332;SDS011;48624;49.812;8.562;2023-03-24T16:23:54;5.18;;;1.35;;
62332;SDS011;48624;49.812;8.562;2023-03-24T16:26:23;5.45;;;1.90;;
62332;SDS011;48624;49.812;8.562;2023-03-24T16:28:51;4.30;;;1.00;;
62332;SDS011;48624;49.812;8.562;2023-03-24T16:31:27;9.38;;;8.73;;
62332;SDS011;48624;49.812;8.562;2023-03-24T16:33:54;2.45;;;0.98;;
62332;SDS011;48624;49.812;8.562;2023-03-24T16:36:20;2.83;;;2.63;;
62332;SDS011;48624;49.812;8.562;2023-03-24T16:38:47;4.80;;;1.63;;
62332;SDS011;48624;49.812;8.562;2023-03-24T16:41:13;4.57;;;3.30;;
62332;SDS011;48624;49.812;8.562;2023-03-24T16:43:40;3.95;;;2.92;;
62332;SDS011;48624;49.812;8.562;2023-03-24T16:46:10;6.65;;;3.63;;
62332;SDS011;48624;49.812;8.562;2023-03-24T16:48:38;17.85;;;16.85;;
62332;SDS011;48624;49.812;8.562;2023-03-24T16:51:04;17.02;;;15.98;;
62332;SDS011;48624;49.812;8.562;2023-03-24T16:53:30;41.00;;;38.75;;
62332;SDS011;48624;49.812;8.562;2023-03-24T16:55:56;25.58;;;24.50;;
62332;SDS011;48624;49.812;8.562;2023-03-24T16:58:21;97.03;;;92.70;;
62332;SDS011;48624;49.812;8.562;2023-03-24T17:00:46;113.40;;;106.95;;
62332;SDS011;48624;49.812;8.562;2023-03-24T17:03:13;15.95;;;15.10;;